Time;durP1;ratioP1;P1;durP2;ratioP2;P2;SDS_P1;SDS_P2;PMS_P1;PMS_P2;Temp;Humidity;BMP_temperature;BMP_pressure;BME280_temperature;BME280_humidity;BME280_pressure;Samples;Min_cycle;Max_cycle;Signal;HPM_P1;HPM_P2
2022/03/08 00:01:56;;;;;;;13.20;11.32;;;;;;;;;;5014355;28;90075;-69
2022/03/08 00:04:24;;;;;;;18.50;11.65;;;;;;;;;;5015387;28;89751;-68
2022/03/08 00:06:50;;;;;;;13.90;12.50;;;;;;;;;;5012733;28;89275;-69
2022/03/08 00:09:16;;;;;;;19.30;11.70;;;;;;;;;;5013177;28;90084;-69
2022/03/08 00:11:43;;;;;;;15.00;10.63;;;;;;;;;;5014759;28;90750;-69
2022/03/08 00:14:09;;;;;;;15.38;12.10;;;;;;;;;;5017623;28;88940;-69
2022/03/08 00:16:36;;;;;;;14.65;10.95;;;;;;;;;;5014597;28;89426;-68
2022/03/08 00:19:06;;;;;;;18.05;11.45;;;;;;;;;;5013772;28;90786;-68
2022/03/08 00:21:32;;;;;;;13.07;11.18;;;;;;;;;;5013554;28;91019;-68
2022/03/08 00:23:59;;;;;;;17.13;11.73;;;;;;;;;;5012633;28;90443;-68
2022/03/08 00:26:25;;;;;;;19.30;12.02;;;;;;;;;;5014338;28;89107;-68
2022/03/08 00:28:51;;;;;;;15.05;11.55;;;;;;;;;;5013289;28;90154;-68
2022/03/08 00:31:18;;;;;;;12.73;11.35;;;;;;;;;;5013014;28;89205;-68
2022/03/08 00:33:44;;;;;;;20.08;12.68;;;;;;;;;;5012123;28;90342;-68
2022/03/08 00:36:10;;;;;;;16.10;12.65;;;;;;;;;;5016414;28;91997;-68
2022/03/08 00:38:37;;;;;;;16.38;10.90;;;;;;;;;;5013922;28;89114;-68
2022/03/08 00:41:05;;;;;;;13.27;11.93;;;;;;;;;;5013067;28;90084;-68
2022/03/08 00:43:32;;;;;;;14.52;11.50;;;;;;;;;;5014177;28;89356;-68
2022/03/08 00:45:58;;;;;;;14.15;11.00;;;;;;;;;;5015206;28;89290;-68
2022/03/08 00:48:26;;;;;;;15.60;12.23;;;;;;;;;;5013571;28;89759;-68
2022/03/08 00:50:52;;;;;;;14.65;11.77;;;;;;;;;;5014405;28;90230;-68
2022/03/08 00:53:19;;;;;;;12.93;10.85;;;;;;;;;;5012640;28;89743;-68
2022/03/08 00:55:45;;;;;;;20.30;12.45;;;;;;;;;;5013147;28;89793;-67
2022/03/08 00:58:12;;;;;;;13.25;10.75;;;;;;;;;;5015992;28;89301;-68
2022/03/08 01:00:39;;;;;;;17.90;12.48;;;;;;;;;;5014302;28;89979;-67
2022/03/08 01:03:06;;;;;;;14.75;11.20;;;;;;;;;;5013536;28;91051;-67
2022/03/08 01:05:33;;;;;;;12.63;11.13;;;;;;;;;;5014086;28;89039;-67
2022/03/08 01:08:00;;;;;;;18.23;12.88;;;;;;;;;;5014592;28;89950;-67
2022/03/08 01:10:27;;;;;;;20.75;11.85;;;;;;;;;;5012444;28;90300;-67
2022/03/08 01:12:54;;;;;;;14.25;12.00;;;;;;;;;;5013339;28;89241;-67
2022/03/08 01:15:21;;;;;;;17.98;12.40;;;;;;;;;;5013637;28;90947;-67
2022/03/08 01:17:47;;;;;;;18.48;12.43;;;;;;;;;;5007989;28;90563;-67
2022/03/08 01:20:14;;;;;;;14.70;11.73;;;;;;;;;;5018668;28;89780;-67
2022/03/08 01:22:41;;;;;;;16.08;12.52;;;;;;;;;;5010234;28;89536;-67
2022/03/08 01:25:08;;;;;;;15.55;12.02;;;;;;;;;;5017766;28;88955;-67
2022/03/08 01:27:34;;;;;;;17.90;12.27;;;;;;;;;;5017104;28;89922;-67
2022/03/08 01:30:04;;;;;;;13.75;11.27;;;;;;;;;;5015380;28;89250;-67
2022/03/08 01:32:30;;;;;;;14.85;11.75;;;;;;;;;;5016836;28;89151;-67
2022/03/08 01:34:56;;;;;;;13.55;12.13;;;;;;;;;;5017856;27;90194;-67
2022/03/08 01:37:23;;;;;;;14.45;11.40;;;;;;;;;;5016429;28;89235;-67
2022/03/08 01:39:50;;;;;;;16.60;12.65;;;;;;;;;;5019075;28;89851;-67
2022/03/08 01:42:20;;;;;;;20.80;11.35;;;;;;;;;;5015330;28;90577;-67
2022/03/08 01:44:46;;;;;;;17.35;12.00;;;;;;;;;;5014642;28;89154;-67
2022/03/08 01:47:14;;;;;;;17.35;11.95;;;;;;;;;;5014871;28;92580;-67
2022/03/08 01:49:40;;;;;;;14.35;11.57;;;;;;;;;;5015724;28;91951;-67
2022/03/08 01:52:07;;;;;;;15.05;11.48;;;;;;;;;;5014992;28;90603;-67
2022/03/08 01:54:33;;;;;;;14.10;11.32;;;;;;;;;;5017361;28;90149;-67
2022/03/08 01:57:00;;;;;;;14.63;12.85;;;;;;;;;;5016703;28;90437;-67
2022/03/08 01:59:26;;;;;;;14.55;11.73;;;;;;;;;;5014598;28;89816;-67
2022/03/08 02:01:52;;;;;;;16.42;12.02;;;;;;;;;;5019181;28;89205;-67
2022/03/08 02:04:20;;;;;;;14.00;11.77;;;;;;;;;;5017344;28;89024;-67
2022/03/08 02:06:46;;;;;;;13.95;12.48;;;;;;;;;;5016023;28;91014;-68
2022/03/08 02:09:13;;;;;;;18.88;12.40;;;;;;;;;;5016205;28;90943;-67
2022/03/08 02:11:39;;;;;;;13.27;11.52;;;;;;;;;;5017221;28;90548;-67
2022/03/08 02:14:06;;;;;;;18.00;12.10;;;;;;;;;;5015565;28;91060;-67
2022/03/08 02:16:32;;;;;;;14.85;12.18;;;;;;;;;;5015388;28;89370;-67
2022/03/08 02:18:59;;;;;;;14.57;12.85;;;;;;;;;;5015054;28;91305;-67
2022/03/08 02:21:26;;;;;;;17.67;12.32;;;;;;;;;;5015791;28;90882;-67
2022/03/08 02:23:52;;;;;;;17.63;12.90;;;;;;;;;;5019483;28;89723;-67
2022/03/08 02:26:20;;;;;;;15.05;12.55;;;;;;;;;;5016395;28;91553;-67
2022/03/08 02:28:46;;;;;;;16.02;12.52;;;;;;;;;;5016257;28;89486;-67
2022/03/08 02:31:13;;;;;;;13.43;12.02;;;;;;;;;;5015767;28;89606;-67
2022/03/08 02:33:39;;;;;;;13.93;12.02;;;;;;;;;;5014437;28;91104;-67
2022/03/08 02:36:06;;;;;;;14.23;12.43;;;;;;;;;;5017017;28;90269;-67
2022/03/08 02:38:32;;;;;;;20.35;12.52;;;;;;;;;;5015690;28;89509;-67
2022/03/08 02:40:58;;;;;;;12.65;11.15;;;;;;;;;;5015336;28;91030;-67
2022/03/08 02:43:25;;;;;;;15.63;11.43;;;;;;;;;;5015918;28;89567;-67
2022/03/08 02:45:51;;;;;;;14.60;12.13;;;;;;;;;;5019350;28;88934;-67
2022/03/08 02:48:17;;;;;;;13.30;10.90;;;;;;;;;;5014037;28;90666;-67
2022/03/08 02:50:43;;;;;;;13.20;11.13;;;;;;;;;;5015983;28;90322;-67
2022/03/08 02:53:10;;;;;;;18.33;12.43;;;;;;;;;;5017036;28;89925;-67
2022/03/08 02:55:37;;;;;;;13.32;11.27;;;;;;;;;;5015001;28;90398;-68
2022/03/08 02:58:04;;;;;;;12.45;11.15;;;;;;;;;;5009677;28;90446;-68
2022/03/08 03:00:31;;;;;;;12.63;10.55;;;;;;;;;;5015500;28;91442;-68
2022/03/08 03:02:58;;;;;;;12.13;10.93;;;;;;;;;;5014862;28;89753;-67
2022/03/08 03:05:25;;;;;;;12.35;10.65;;;;;;;;;;5014618;28;89867;-67
2022/03/08 03:07:51;;;;;;;15.23;10.95;;;;;;;;;;5018262;28;90090;-67
2022/03/08 03:10:18;;;;;;;13.07;11.77;;;;;;;;;;5015736;28;89376;-67
2022/03/08 03:12:45;;;;;;;14.88;11.68;;;;;;;;;;5015043;28;90117;-67
2022/03/08 03:15:12;;;;;;;12.13;10.82;;;;;;;;;;5007520;28;90429;-67
2022/03/08 03:17:39;;;;;;;12.85;10.52;;;;;;;;;;5015277;28;90540;-68
2022/03/08 03:20:07;;;;;;;13.68;10.77;;;;;;;;;;5014243;28;90938;-68
2022/03/08 03:22:34;;;;;;;14.88;10.38;;;;;;;;;;5015253;27;89246;-68
2022/03/08 03:25:00;;;;;;;10.75;9.68;;;;;;;;;;5014961;28;90241;-68
2022/03/08 03:27:27;;;;;;;12.93;10.38;;;;;;;;;;5016438;28;91098;-68
2022/03/08 03:29:53;;;;;;;11.25;10.00;;;;;;;;;;5017393;28;90091;-68
2022/03/08 03:32:20;;;;;;;16.13;9.73;;;;;;;;;;5015750;28;89896;-68
2022/03/08 03:34:46;;;;;;;9.10;8.23;;;;;;;;;;5016363;28;88712;-68
2022/03/08 03:37:12;;;;;;;14.88;10.10;;;;;;;;;;5014236;28;88671;-68
2022/03/08 03:39:39;;;;;;;12.27;9.63;;;;;;;;;;5015302;28;89234;-68
2022/03/08 03:42:05;;;;;;;11.73;9.90;;;;;;;;;;5014915;28;87492;-68
2022/03/08 03:44:32;;;;;;;10.63;9.52;;;;;;;;;;5015867;28;89697;-68
2022/03/08 03:46:58;;;;;;;11.40;9.93;;;;;;;;;;5016308;28;87984;-68
2022/03/08 03:49:25;;;;;;;16.88;9.82;;;;;;;;;;5018021;28;88936;-68
2022/03/08 03:51:51;;;;;;;9.38;8.35;;;;;;;;;;5014689;28;89453;-68
2022/03/08 03:54:18;;;;;;;9.85;8.93;;;;;;;;;;5015823;28;88645;-68
2022/03/08 03:56:44;;;;;;;9.52;8.52;;;;;;;;;;5015984;28;88354;-68
2022/03/08 03:59:11;;;;;;;11.85;9.40;;;;;;;;;;5014942;28;88042;-68
2022/03/08 04:01:37;;;;;;;9.90;8.90;;;;;;;;;;5015596;28;88627;-68
2022/03/08 04:04:04;;;;;;;15.73;9.02;;;;;;;;;;5016708;28;89277;-68
2022/03/08 04:06:30;;;;;;;11.80;9.18;;;;;;;;;;5015614;28;88200;-68
2022/03/08 04:08:57;;;;;;;13.85;9.48;;;;;;;;;;5014121;28;88841;-68
2022/03/08 04:11:23;;;;;;;9.40;8.48;;;;;;;;;;5017865;28;89053;-68
2022/03/08 04:13:49;;;;;;;8.48;7.57;;;;;;;;;;5015919;28;88699;-68
2022/03/08 04:16:16;;;;;;;9.18;8.27;;;;;;;;;;5014988;28;88317;-68
2022/03/08 04:18:42;;;;;;;11.00;8.32;;;;;;;;;;5014349;28;88298;-68
2022/03/08 04:21:08;;;;;;;9.57;8.60;;;;;;;;;;5015574;28;88736;-68
2022/03/08 04:23:35;;;;;;;9.43;8.45;;;;;;;;;;5015091;28;89999;-68
2022/03/08 04:26:01;;;;;;;9.32;8.43;;;;;;;;;;5014287;28;88642;-68
2022/03/08 04:28:28;;;;;;;9.68;8.18;;;;;;;;;;5015157;28;88447;-68
2022/03/08 04:30:55;;;;;;;11.07;9.02;;;;;;;;;;5015926;28;88924;-68
2022/03/08 04:33:21;;;;;;;13.68;8.73;;;;;;;;;;5017785;28;88081;-68
2022/03/08 04:35:48;;;;;;;9.07;8.13;;;;;;;;;;5015561;28;89389;-68
2022/03/08 04:38:14;;;;;;;11.38;8.95;;;;;;;;;;5014886;28;89155;-68
2022/03/08 04:40:40;;;;;;;9.75;8.38;;;;;;;;;;5008279;28;89519;-68
2022/03/08 04:43:07;;;;;;;9.10;8.18;;;;;;;;;;5015633;28;88979;-68
2022/03/08 04:45:33;;;;;;;9.85;8.85;;;;;;;;;;5014891;28;88818;-68
2022/03/08 04:48:00;;;;;;;16.27;9.50;;;;;;;;;;5015226;28;88505;-68
2022/03/08 04:50:26;;;;;;;11.75;9.45;;;;;;;;;;5015081;28;89396;-68
2022/03/08 04:52:52;;;;;;;10.60;8.65;;;;;;;;;;5015274;28;88735;-68
2022/03/08 04:55:19;;;;;;;9.15;8.18;;;;;;;;;;5017128;28;89464;-68
2022/03/08 04:57:50;;;;;;;10.80;8.02;;;;;;;;;;5013398;28;88452;-68
2022/03/08 05:00:16;;;;;;;14.60;8.43;;;;;;;;;;5014749;28;88780;-68
2022/03/08 05:02:44;;;;;;;11.65;9.30;;;;;;;;;;5013903;28;89118;-68
2022/03/08 05:05:11;;;;;;;12.23;9.30;;;;;;;;;;5014593;28;88732;-68
2022/03/08 05:07:38;;;;;;;10.20;8.48;;;;;;;;;;5015542;28;89800;-68
2022/03/08 05:10:05;;;;;;;15.20;9.65;;;;;;;;;;5014516;28;90127;-68
2022/03/08 05:12:31;;;;;;;11.32;9.38;;;;;;;;;;5013659;28;88085;-68
2022/03/08 05:14:58;;;;;;;15.50;9.90;;;;;;;;;;5014861;28;88161;-68
2022/03/08 05:17:24;;;;;;;9.85;8.32;;;;;;;;;;5017600;28;88848;-68
2022/03/08 05:19:51;;;;;;;14.10;8.55;;;;;;;;;;5014878;28;88490;-68
2022/03/08 05:22:17;;;;;;;8.98;8.07;;;;;;;;;;5012989;28;89853;-68
2022/03/08 05:24:44;;;;;;;10.65;6.70;;;;;;;;;;5014506;28;88934;-68
2022/03/08 05:27:10;;;;;;;9.57;8.57;;;;;;;;;;5013492;28;88939;-68
2022/03/08 05:29:37;;;;;;;8.73;7.50;;;;;;;;;;5008765;28;90118;-68
2022/03/08 05:32:04;;;;;;;9.98;8.10;;;;;;;;;;5014336;28;88026;-67
2022/03/08 05:34:30;;;;;;;7.88;7.15;;;;;;;;;;5014365;28;88519;-68
2022/03/08 05:36:57;;;;;;;7.68;7.03;;;;;;;;;;5014376;28;88539;-68
2022/03/08 05:39:23;;;;;;;8.82;7.85;;;;;;;;;;5015636;28;88063;-68
2022/03/08 05:41:50;;;;;;;6.50;6.00;;;;;;;;;;5015185;28;89675;-68
2022/03/08 05:44:16;;;;;;;7.22;6.25;;;;;;;;;;5012002;28;88835;-67
2022/03/08 05:46:43;;;;;;;7.88;7.03;;;;;;;;;;5015154;28;89387;-68
2022/03/08 05:49:09;;;;;;;11.85;7.63;;;;;;;;;;5013870;28;88062;-68
2022/03/08 05:51:36;;;;;;;10.75;7.03;;;;;;;;;;5014278;28;88817;-68
2022/03/08 05:54:02;;;;;;;10.90;7.47;;;;;;;;;;5014067;28;90248;-68
2022/03/08 05:56:28;;;;;;;9.20;7.10;;;;;;;;;;5013778;28;88927;-68
2022/03/08 05:58:55;;;;;;;9.23;7.40;;;;;;;;;;5016815;28;88146;-67
2022/03/08 06:01:21;;;;;;;9.75;6.93;;;;;;;;;;5012384;28;89970;-68
2022/03/08 06:03:47;;;;;;;9.15;8.25;;;;;;;;;;5015192;28;88913;-68
2022/03/08 06:06:14;;;;;;;16.67;12.00;;;;;;;;;;5016825;28;88941;-68
2022/03/08 06:08:40;;;;;;;9.73;7.57;;;;;;;;;;5018013;28;88960;-68
2022/03/08 06:11:07;;;;;;;12.35;7.72;;;;;;;;;;5016663;28;89774;-68
2022/03/08 06:13:34;;;;;;;9.18;7.78;;;;;;;;;;5018201;28;90178;-68
2022/03/08 06:16:00;;;;;;;8.07;7.05;;;;;;;;;;5014188;28;89666;-67
2022/03/08 06:18:27;;;;;;;8.02;7.43;;;;;;;;;;5014146;28;88078;-67
2022/03/08 06:20:53;;;;;;;8.00;7.28;;;;;;;;;;5015205;28;88758;-67
2022/03/08 06:23:20;;;;;;;8.30;7.57;;;;;;;;;;5009979;28;88646;-67
2022/03/08 06:25:46;;;;;;;7.05;6.45;;;;;;;;;;5010570;28;88783;-67
2022/03/08 06:28:12;;;;;;;7.32;6.63;;;;;;;;;;5011594;27;89618;-67
2022/03/08 06:30:39;;;;;;;7.32;6.63;;;;;;;;;;5008325;28;89956;-67
2022/03/08 06:33:05;;;;;;;6.80;6.20;;;;;;;;;;5012201;28;88051;-67
2022/03/08 06:35:32;;;;;;;8.15;7.40;;;;;;;;;;5013598;28;88724;-68
2022/03/08 06:37:58;;;;;;;7.97;7.18;;;;;;;;;;5011141;28;88851;-67
2022/03/08 06:40:25;;;;;;;6.10;5.57;;;;;;;;;;5009864;28;88896;-68
2022/03/08 06:42:51;;;;;;;8.95;7.32;;;;;;;;;;5014651;28;90002;-67
2022/03/08 06:45:17;;;;;;;7.72;7.03;;;;;;;;;;5010028;28;88735;-67
2022/03/08 06:47:43;;;;;;;8.60;7.35;;;;;;;;;;5010418;28;91167;-67
2022/03/08 06:50:10;;;;;;;8.50;7.57;;;;;;;;;;5012802;28;89012;-67
2022/03/08 06:52:37;;;;;;;9.10;7.55;;;;;;;;;;5010475;28;88415;-67
2022/03/08 06:55:03;;;;;;;9.20;7.07;;;;;;;;;;5010389;28;88903;-67
2022/03/08 06:57:30;;;;;;;7.13;6.47;;;;;;;;;;5008529;28;88245;-67
2022/03/08 06:59:56;;;;;;;8.20;7.32;;;;;;;;;;5011973;28;89687;-67
2022/03/08 07:02:23;;;;;;;9.82;6.63;;;;;;;;;;5011817;28;89000;-67
2022/03/08 07:04:49;;;;;;;8.45;7.28;;;;;;;;;;5017202;28;88770;-67
2022/03/08 07:07:16;;;;;;;8.27;7.15;;;;;;;;;;5017061;27;88929;-68
2022/03/08 07:09:42;;;;;;;10.18;7.15;;;;;;;;;;5015312;28;88870;-68
2022/03/08 07:12:09;;;;;;;9.13;6.85;;;;;;;;;;5015284;28;89009;-69
2022/03/08 07:14:36;;;;;;;7.82;7.10;;;;;;;;;;5015782;28;88116;-68
2022/03/08 07:17:02;;;;;;;7.65;7.00;;;;;;;;;;5014115;28;89146;-67
2022/03/08 07:19:29;;;;;;;8.32;7.22;;;;;;;;;;5016326;28;88001;-68
2022/03/08 07:21:55;;;;;;;8.07;7.28;;;;;;;;;;5011404;28;88892;-68
2022/03/08 07:24:22;;;;;;;11.13;6.60;;;;;;;;;;5014461;27;88096;-68
2022/03/08 07:26:48;;;;;;;8.02;6.63;;;;;;;;;;5016382;28;88734;-68
2022/03/08 07:29:14;;;;;;;10.00;5.75;;;;;;;;;;5008726;27;90460;-68
2022/03/08 07:31:41;;;;;;;12.30;7.63;;;;;;;;;;5010581;28;89293;-68
2022/03/08 07:34:07;;;;;;;8.00;7.20;;;;;;;;;;5013349;28;89900;-68
2022/03/08 07:36:34;;;;;;;8.23;7.40;;;;;;;;;;5015183;28;89367;-68
2022/03/08 07:39:00;;;;;;;11.25;6.57;;;;;;;;;;5011046;28;89002;-68
2022/03/08 07:41:26;;;;;;;7.00;6.47;;;;;;;;;;5013214;28;88294;-68
2022/03/08 07:43:53;;;;;;;8.43;7.20;;;;;;;;;;5010454;28;89302;-68
2022/03/08 07:46:19;;;;;;;8.13;6.85;;;;;;;;;;5018308;28;89426;-68
2022/03/08 07:48:46;;;;;;;7.88;5.68;;;;;;;;;;5013991;28;88131;-68
2022/03/08 07:51:32;;;;;;;5.05;4.65;;;;;;;;;;5012187;28;88588;-68
2022/03/08 07:53:59;;;;;;;9.18;6.50;;;;;;;;;;5016656;28;89325;-68
2022/03/08 07:56:26;;;;;;;11.57;7.22;;;;;;;;;;5015874;28;88369;-68
2022/03/08 07:58:52;;;;;;;9.75;7.90;;;;;;;;;;5016346;28;89496;-68
2022/03/08 08:01:19;;;;;;;8.15;7.35;;;;;;;;;;5015336;28;89862;-69
2022/03/08 08:03:45;;;;;;;10.60;6.45;;;;;;;;;;5015712;28;88092;-68
2022/03/08 08:06:18;;;;;;;7.80;7.00;;;;;;;;;;5015996;28;89317;-68
2022/03/08 08:08:44;;;;;;;12.15;7.22;;;;;;;;;;5014233;28;88857;-68
2022/03/08 08:11:10;;;;;;;7.30;6.45;;;;;;;;;;5007918;28;88752;-68
2022/03/08 08:13:37;;;;;;;7.25;6.55;;;;;;;;;;5011355;28;90108;-68
2022/03/08 08:16:03;;;;;;;6.97;6.38;;;;;;;;;;5007467;28;90022;-68
2022/03/08 08:18:29;;;;;;;11.15;6.65;;;;;;;;;;5004766;28;89594;-68
2022/03/08 08:20:56;;;;;;;7.85;7.18;;;;;;;;;;5010994;28;89831;-68
2022/03/08 08:23:24;;;;;;;7.90;7.10;;;;;;;;;;5009765;28;89635;-68
2022/03/08 08:25:50;;;;;;;7.75;6.22;;;;;;;;;;5007088;28;89607;-68
2022/03/08 08:28:16;;;;;;;7.32;6.30;;;;;;;;;;5012358;27;88958;-68
2022/03/08 08:30:43;;;;;;;9.98;6.10;;;;;;;;;;5013010;28;89386;-68
2022/03/08 08:33:09;;;;;;;4.80;4.47;;;;;;;;;;5008164;28;89728;-68
2022/03/08 08:35:36;;;;;;;5.50;5.10;;;;;;;;;;5013801;28;88880;-68
2022/03/08 08:38:02;;;;;;;8.00;6.13;;;;;;;;;;5009976;28;89503;-68
2022/03/08 08:40:29;;;;;;;5.55;5.05;;;;;;;;;;5009154;28;89398;-68
2022/03/08 08:42:55;;;;;;;6.10;5.50;;;;;;;;;;5006075;28;90359;-68
2022/03/08 08:45:21;;;;;;;5.70;5.22;;;;;;;;;;5010975;28;90571;-68
2022/03/08 08:47:48;;;;;;;5.35;4.85;;;;;;;;;;5012184;28;89860;-65
2022/03/08 08:50:14;;;;;;;6.20;5.60;;;;;;;;;;5010175;28;90712;-66
2022/03/08 08:52:40;;;;;;;5.25;4.75;;;;;;;;;;5014505;28;88617;-66
2022/03/08 08:55:07;;;;;;;6.38;5.50;;;;;;;;;;5019728;28;89445;-68
2022/03/08 08:57:36;;;;;;;5.43;4.90;;;;;;;;;;5012269;28;89524;-66
2022/03/08 09:00:03;;;;;;;9.15;5.32;;;;;;;;;;5008441;28;89517;-69
2022/03/08 09:02:30;;;;;;;7.25;4.85;;;;;;;;;;5012401;28;88757;-67
2022/03/08 09:04:56;;;;;;;10.57;5.85;;;;;;;;;;5015121;28;88734;-67
2022/03/08 09:07:23;;;;;;;6.07;5.47;;;;;;;;;;5013626;28;89537;-67
2022/03/08 09:09:49;;;;;;;7.65;5.57;;;;;;;;;;5015330;28;88826;-66
2022/03/08 09:12:16;;;;;;;8.65;5.38;;;;;;;;;;5014414;28;89459;-66
2022/03/08 09:14:42;;;;;;;7.45;5.45;;;;;;;;;;5016361;28;88952;-66
2022/03/08 09:17:09;;;;;;;6.07;5.35;;;;;;;;;;5013846;28;89796;-67
2022/03/08 09:19:35;;;;;;;5.65;5.25;;;;;;;;;;5015318;28;89738;-66
2022/03/08 09:22:01;;;;;;;5.38;4.88;;;;;;;;;;5013334;28;88943;-69
2022/03/08 09:24:28;;;;;;;6.30;5.30;;;;;;;;;;5014714;28;88863;-69
2022/03/08 09:26:54;;;;;;;5.57;5.00;;;;;;;;;;5014823;28;89021;-69
2022/03/08 09:29:20;;;;;;;7.10;5.63;;;;;;;;;;5014874;28;88118;-66
2022/03/08 09:31:47;;;;;;;6.20;5.70;;;;;;;;;;5013972;28;89547;-67
2022/03/08 09:34:13;;;;;;;5.88;5.28;;;;;;;;;;5014259;27;88922;-67
2022/03/08 09:36:40;;;;;;;4.25;3.85;;;;;;;;;;5017818;28;88491;-66
2022/03/08 09:39:06;;;;;;;8.93;5.22;;;;;;;;;;5021781;28;89131;-66
2022/03/08 09:41:33;;;;;;;6.70;5.30;;;;;;;;;;5019481;28;88449;-66
2022/03/08 09:44:00;;;;;;;6.85;4.88;;;;;;;;;;5017795;28;88751;-66
2022/03/08 09:46:26;;;;;;;4.85;4.47;;;;;;;;;;5014458;28;89806;-66
2022/03/08 09:48:52;;;;;;;5.15;4.45;;;;;;;;;;5024782;27;88889;-66
2022/03/08 09:51:19;;;;;;;4.63;4.28;;;;;;;;;;5017995;28;88977;-66
2022/03/08 09:53:46;;;;;;;6.00;5.47;;;;;;;;;;5017382;28;88993;-66
2022/03/08 09:56:12;;;;;;;6.45;4.90;;;;;;;;;;5020181;28;88724;-68
2022/03/08 09:58:40;;;;;;;6.50;6.00;;;;;;;;;;5017241;28;88472;-69
2022/03/08 10:01:07;;;;;;;5.85;5.30;;;;;;;;;;5017090;27;88216;-69
2022/03/08 10:03:35;;;;;;;6.07;5.30;;;;;;;;;;5016828;28;89870;-68
2022/03/08 10:06:03;;;;;;;4.72;4.32;;;;;;;;;;5018803;28;88900;-68
2022/03/08 10:08:29;;;;;;;5.30;4.90;;;;;;;;;;5017423;28;88130;-68
2022/03/08 10:11:01;;;;;;;5.45;4.97;;;;;;;;;;5016260;28;89707;-68
2022/03/08 10:13:47;;;;;;;5.35;4.95;;;;;;;;;;5013062;28;89109;-68
2022/03/08 10:16:26;;;;;;;5.43;4.93;;;;;;;;;;5026022;28;88917;-67
2022/03/08 10:18:54;;;;;;;6.38;4.95;;;;;;;;;;5019866;28;88598;-68
2022/03/08 10:21:30;;;;;;;5.95;4.30;;;;;;;;;;5025705;27;90617;-68
2022/03/08 10:23:57;;;;;;;6.32;5.38;;;;;;;;;;5023788;28;90248;-68
2022/03/08 10:26:24;;;;;;;4.22;3.92;;;;;;;;;;5018369;28;88512;-68
2022/03/08 10:28:52;;;;;;;5.80;5.05;;;;;;;;;;5016105;28;88184;-68
2022/03/08 10:31:18;;;;;;;6.22;5.13;;;;;;;;;;5015964;28;88718;-68
2022/03/08 10:33:46;;;;;;;5.47;4.57;;;;;;;;;;5016797;28;90001;-67
2022/03/08 10:36:15;;;;;;;5.47;4.78;;;;;;;;;;5017273;28;88030;-68
2022/03/08 10:39:05;;;;;;;5.80;5.30;;;;;;;;;;5016565;28;89106;-68
2022/03/08 10:41:32;;;;;;;5.63;5.22;;;;;;;;;;5016719;28;89963;-68
2022/03/08 10:43:58;;;;;;;6.90;4.95;;;;;;;;;;5016703;28;89616;-68
2022/03/08 10:46:26;;;;;;;6.97;5.15;;;;;;;;;;5016326;28;89679;-68
2022/03/08 10:48:53;;;;;;;4.95;4.43;;;;;;;;;;5017184;28;88285;-68
2022/03/08 10:51:20;;;;;;;11.80;5.20;;;;;;;;;;5016505;28;88804;-68
2022/03/08 10:53:47;;;;;;;8.55;5.70;;;;;;;;;;5015764;28;89744;-68
2022/03/08 10:56:19;;;;;;;9.40;4.88;;;;;;;;;;5017860;28;88671;-68
2022/03/08 10:58:53;;;;;;;7.10;5.03;;;;;;;;;;5014792;28;88865;-68
2022/03/08 11:01:19;;;;;;;6.25;5.20;;;;;;;;;;5015700;28;89209;-68
2022/03/08 11:03:56;;;;;;;6.78;4.90;;;;;;;;;;5020036;28;88189;-68
2022/03/08 11:06:23;;;;;;;6.97;5.22;;;;;;;;;;5016571;28;89155;-68
2022/03/08 11:08:50;;;;;;;5.20;4.80;;;;;;;;;;5016357;28;88085;-68
2022/03/08 11:11:18;;;;;;;5.38;4.60;;;;;;;;;;5016516;28;89615;-68
2022/03/08 11:13:47;;;;;;;9.43;4.78;;;;;;;;;;5015908;28;88860;-68
2022/03/08 11:16:14;;;;;;;4.80;4.40;;;;;;;;;;5017103;28;89508;-68
2022/03/08 11:18:44;;;;;;;4.72;4.32;;;;;;;;;;5013778;28;90147;-68
2022/03/08 11:21:10;;;;;;;8.75;4.60;;;;;;;;;;5016025;28;89193;-69
2022/03/08 11:23:37;;;;;;;7.28;4.82;;;;;;;;;;5013352;28;88351;-68
2022/03/08 11:26:07;;;;;;;5.07;4.68;;;;;;;;;;5019261;28;89791;-68
2022/03/08 11:28:34;;;;;;;5.32;4.82;;;;;;;;;;5016486;28;88777;-68
2022/03/08 11:31:01;;;;;;;6.57;4.05;;;;;;;;;;5015038;27;88130;-68
2022/03/08 11:33:46;;;;;;;7.38;5.13;;;;;;;;;;5016598;28;89069;-68
2022/03/08 11:36:18;;;;;;;5.28;3.67;;;;;;;;;;5020135;28;90656;-69
2022/03/08 11:39:05;;;;;;;6.85;4.05;;;;;;;;;;5009956;28;89413;-68
2022/03/08 11:41:31;;;;;;;5.07;3.90;;;;;;;;;;5007986;28;89622;-68
2022/03/08 11:43:57;;;;;;;4.55;4.15;;;;;;;;;;5010869;28;88843;-68
2022/03/08 11:46:24;;;;;;;3.92;3.63;;;;;;;;;;5013404;28;89006;-68
2022/03/08 11:48:55;;;;;;;14.07;3.78;;;;;;;;;;5013479;28;89110;-68
2022/03/08 11:51:22;;;;;;;4.80;3.75;;;;;;;;;;5025392;27;89030;-68
2022/03/08 11:53:59;;;;;;;6.28;4.13;;;;;;;;;;5008763;28;88601;-68
2022/03/08 11:56:25;;;;;;;4.60;3.78;;;;;;;;;;5008565;27;88938;-68
2022/03/08 11:58:52;;;;;;;4.10;3.80;;;;;;;;;;5006579;28;90222;-67
2022/03/08 12:01:26;;;;;;;4.50;3.97;;;;;;;;;;5010308;28;90357;-69
2022/03/08 12:03:54;;;;;;;4.07;3.78;;;;;;;;;;5004426;28;89673;-68
2022/03/08 12:06:29;;;;;;;5.03;4.07;;;;;;;;;;5010794;28;89580;-69
2022/03/08 12:09:01;;;;;;;4.57;3.63;;;;;;;;;;5014517;27;89020;-68
2022/03/08 12:11:31;;;;;;;4.80;4.32;;;;;;;;;;5012908;28;88780;-68
2022/03/08 12:14:19;;;;;;;8.18;4.35;;;;;;;;;;5012008;28;89690;-68
2022/03/08 12:16:49;;;;;;;4.88;4.00;;;;;;;;;;5010758;27;88130;-68
2022/03/08 12:19:22;;;;;;;4.55;4.15;;;;;;;;;;5007240;28;89727;-69
2022/03/08 12:21:54;;;;;;;6.53;4.32;;;;;;;;;;5008506;28;90087;-69
2022/03/08 12:24:21;;;;;;;4.20;3.65;;;;;;;;;;5017066;28;90042;-69
2022/03/08 12:26:47;;;;;;;9.05;4.50;;;;;;;;;;5005901;28;89579;-68
2022/03/08 12:29:36;;;;;;;4.70;4.25;;;;;;;;;;5006438;28;90062;-68
2022/03/08 12:32:05;;;;;;;8.32;4.05;;;;;;;;;;5009544;28;88108;-67
2022/03/08 12:34:45;;;;;;;5.03;4.63;;;;;;;;;;5007852;28;89743;-68
2022/03/08 12:37:36;;;;;;;7.53;3.78;;;;;;;;;;5012401;28;88759;-66
2022/03/08 12:40:04;;;;;;;5.50;3.90;;;;;;;;;;5010612;28;88769;-68
2022/03/08 12:42:32;;;;;;;4.57;3.75;;;;;;;;;;5007420;28;89707;-68
2022/03/08 12:45:17;;;;;;;5.32;3.92;;;;;;;;;;5009559;27;89033;-68
2022/03/08 12:47:45;;;;;;;9.88;4.30;;;;;;;;;;5013484;27;88741;-68
2022/03/08 12:50:11;;;;;;;5.95;4.40;;;;;;;;;;5008318;28;89038;-68
2022/03/08 12:52:40;;;;;;;7.18;4.25;;;;;;;;;;5009966;28;89283;-66
2022/03/08 12:55:09;;;;;;;4.80;4.15;;;;;;;;;;5011388;28;90386;-66
2022/03/08 12:57:41;;;;;;;4.95;4.50;;;;;;;;;;5008860;28;90362;-69
2022/03/08 13:00:24;;;;;;;3.67;3.45;;;;;;;;;;5008159;28;88520;-69
2022/03/08 13:02:50;;;;;;;10.05;4.28;;;;;;;;;;5005582;28;89826;-68
2022/03/08 13:05:23;;;;;;;4.00;3.45;;;;;;;;;;5009505;28;90018;-68
2022/03/08 13:07:50;;;;;;;11.53;4.30;;;;;;;;;;5009072;28;89592;-68
2022/03/08 13:10:17;;;;;;;5.05;3.90;;;;;;;;;;5008519;28;89384;-69
2022/03/08 13:12:48;;;;;;;7.82;4.38;;;;;;;;;;5008164;28;89240;-68
2022/03/08 13:15:16;;;;;;;7.15;4.28;;;;;;;;;;5010276;28;89870;-68
2022/03/08 13:17:45;;;;;;;4.70;4.20;;;;;;;;;;5017260;28;89939;-69
2022/03/08 13:20:31;;;;;;;7.90;4.57;;;;;;;;;;5009618;28;89471;-67
2022/03/08 13:22:59;;;;;;;4.45;4.15;;;;;;;;;;5010502;28;90136;-67
2022/03/08 13:25:26;;;;;;;9.38;5.60;;;;;;;;;;5012654;28;88774;-67
2022/03/08 13:27:55;;;;;;;4.53;4.13;;;;;;;;;;5011489;28;89478;-68
2022/03/08 13:30:26;;;;;;;7.55;4.75;;;;;;;;;;5012892;28;89061;-68
2022/03/08 13:33:11;;;;;;;4.80;4.38;;;;;;;;;;5010249;28;89714;-66
2022/03/08 13:35:48;;;;;;;6.63;4.88;;;;;;;;;;5015384;27;88783;-68
2022/03/08 13:38:16;;;;;;;24.60;5.10;;;;;;;;;;5017289;28;89346;-70
2022/03/08 13:40:43;;;;;;;5.55;4.47;;;;;;;;;;5018678;28;88075;-66
2022/03/08 13:43:10;;;;;;;4.93;4.18;;;;;;;;;;4998847;28;89734;-66
2022/03/08 13:45:58;;;;;;;7.38;5.13;;;;;;;;;;5029891;28;88669;-67
2022/03/08 13:48:27;;;;;;;5.93;4.90;;;;;;;;;;5014428;28;89664;-66
2022/03/08 13:50:54;;;;;;;5.40;4.40;;;;;;;;;;5015873;28;89690;-68
2022/03/08 13:53:21;;;;;;;6.05;5.20;;;;;;;;;;5018027;28;88789;-66
2022/03/08 13:55:53;;;;;;;5.05;4.65;;;;;;;;;;5019536;28;89763;-66
2022/03/08 13:58:19;;;;;;;4.80;4.40;;;;;;;;;;5018737;28;88658;-66
2022/03/08 14:00:47;;;;;;;4.85;4.47;;;;;;;;;;5020711;28;88763;-66
2022/03/08 14:03:14;;;;;;;4.05;3.80;;;;;;;;;;5019700;28;88479;-67
2022/03/08 14:05:47;;;;;;;7.72;4.75;;;;;;;;;;5017524;28;89821;-66
2022/03/08 14:08:22;;;;;;;4.95;4.38;;;;;;;;;;5017999;28;89558;-66
2022/03/08 14:10:52;;;;;;;3.78;3.58;;;;;;;;;;5013159;28;90096;-66
2022/03/08 14:13:19;;;;;;;5.35;4.68;;;;;;;;;;5014358;28;88884;-66
2022/03/08 14:15:52;;;;;;;4.63;4.30;;;;;;;;;;5007084;28;88774;-66
2022/03/08 14:18:18;;;;;;;5.97;4.40;;;;;;;;;;5012581;28;90233;-66
2022/03/08 14:20:45;;;;;;;5.03;4.63;;;;;;;;;;5018453;28;88087;-66
2022/03/08 14:23:12;;;;;;;5.63;4.07;;;;;;;;;;5019458;28;88448;-68
2022/03/08 14:25:57;;;;;;;5.20;4.85;;;;;;;;;;5017436;28;87787;-66
2022/03/08 14:28:42;;;;;;;8.60;4.55;;;;;;;;;;5018035;28;88052;-69
2022/03/08 14:31:22;;;;;;;9.40;5.20;;;;;;;;;;5017630;28;89790;-67
2022/03/08 14:33:52;;;;;;;5.75;4.40;;;;;;;;;;5017780;28;88798;-67
2022/03/08 14:36:45;;;;;;;4.15;3.80;;;;;;;;;;5017494;27;90269;-67
2022/03/08 14:39:14;;;;;;;5.57;5.03;;;;;;;;;;5007232;28;89507;-69
2022/03/08 14:41:50;;;;;;;6.15;5.15;;;;;;;;;;5018375;28;88270;-68